sensor_id;sensor_type;location;lat;lon;timestamp;pressure;altitude;pressure_sealevel;temperature;humidity
68376;BME280;55318;52.068;5.188;2023-03-13T00:00:09;100197.0;;;11.23;93.57
68376;BME280;55318;52.068;5.188;2023-03-13T00:01:47;100189.0;;;11.09;94.23
68376;BME280;55318;52.068;5.188;2023-03-13T00:05:03;100182.0;;;11.05;94.14
68376;BME280;55318;52.068;5.188;2023-03-13T00:06:40;100180.0;;;11.09;94.29
68376;BME280;55318;52.068;5.188;2023-03-13T00:08:17;100168.0;;;10.94;94.97
68376;BME280;55318;52.068;5.188;2023-03-13T00:09:53;100165.0;;;11.01;94.77
68376;BME280;55318;52.068;5.188;2023-03-13T00:13:07;100162.0;;;11.1;95.0
68376;BME280;55318;52.068;5.188;2023-03-13T00:14:44;100161.0;;;11.15;94.7
68376;BME280;55318;52.068;5.188;2023-03-13T00:16:21;100158.0;;;11.09;95.31
68376;BME280;55318;52.068;5.188;2023-03-13T00:19:35;100152.0;;;11.23;95.36
68376;BME280;55318;52.068;5.188;2023-03-13T00:21:11;100149.0;;;11.21;95.81
68376;BME280;55318;52.068;5.188;2023-03-13T00:22:48;100139.0;;;11.04;97.2
68376;BME280;55318;52.068;5.188;2023-03-13T00:26:02;100139.0;;;11.17;97.37
68376;BME280;55318;52.068;5.188;2023-03-13T00:27:40;100130.0;;;11.01;98.27
68376;BME280;55318;52.068;5.188;2023-03-13T00:29:17;100125.0;;;11.12;98.17
68376;BME280;55318;52.068;5.188;2023-03-13T00:31:00;100120.0;;;11.11;99.01
68376;BME280;55318;52.068;5.188;2023-03-13T00:34:19;100113.0;;;11.01;100.0
68376;BME280;55318;52.068;5.188;2023-03-13T00:35:57;100102.0;;;11.08;100.0
68376;BME280;55318;52.068;5.188;2023-03-13T00:37:34;100090.0;;;10.98;100.0
68376;BME280;55318;52.068;5.188;2023-03-13T00:39:11;100082.0;;;11.0;100.0
68376;BME280;55318;52.068;5.188;2023-03-13T00:42:23;100080.0;;;11.0;100.0
68376;BME280;55318;52.068;5.188;2023-03-13T00:44:01;100071.0;;;11.03;100.0
68376;BME280;55318;52.068;5.188;2023-03-13T00:45:38;100073.0;;;11.11;100.0
68376;BME280;55318;52.068;5.188;2023-03-13T00:48:51;100055.0;;;11.09;100.0
68376;BME280;55318;52.068;5.188;2023-03-13T00:50:28;100056.0;;;11.05;100.0
68376;BME280;55318;52.068;5.188;2023-03-13T00:52:05;100055.0;;;11.04;100.0
68376;BME280;55318;52.068;5.188;2023-03-13T00:55:20;100053.0;;;10.87;100.0
68376;BME280;55318;52.068;5.188;2023-03-13T00:56:56;100048.0;;;10.89;100.0
68376;BME280;55318;52.068;5.188;2023-03-13T00:58:33;100038.0;;;10.95;100.0
68376;BME280;55318;52.068;5.188;2023-03-13T01:00:12;100027.0;;;10.88;100.0
68376;BME280;55318;52.068;5.188;2023-03-13T01:03:25;100019.0;;;10.88;100.0
68376;BME280;55318;52.068;5.188;2023-03-13T01:05:02;100026.0;;;10.8;100.0
68376;BME280;55318;52.068;5.188;2023-03-13T01:06:39;100013.0;;;10.84;100.0
68376;BME280;55318;52.068;5.188;2023-03-13T01:09:54;100001.0;;;10.82;100.0
68376;BME280;55318;52.068;5.188;2023-03-13T01:11:33;100005.0;;;10.95;100.0
68376;BME280;55318;52.068;5.188;2023-03-13T01:13:11;99995.0;;;10.91;100.0
68376;BME280;55318;52.068;5.188;2023-03-13T01:14:48;99997.0;;;10.98;100.0
68376;BME280;55318;52.068;5.188;2023-03-13T01:18:04;99994.0;;;11.11;100.0
68376;BME280;55318;52.068;5.188;2023-03-13T01:19:41;99993.0;;;11.06;100.0
68376;BME280;55318;52.068;5.188;2023-03-13T01:21:18;99987.0;;;11.01;100.0
68376;BME280;55318;52.068;5.188;2023-03-13T01:24:34;99978.0;;;11.09;100.0
68376;BME280;55318;52.068;5.188;2023-03-13T01:26:10;99980.0;;;11.07;100.0
68376;BME280;55318;52.068;5.188;2023-03-13T01:27:47;99967.0;;;10.96;100.0
68376;BME280;55318;52.068;5.188;2023-03-13T01:29:24;99964.0;;;10.93;100.0
68376;BME280;55318;52.068;5.188;2023-03-13T01:32:47;99957.0;;;10.98;100.0
68376;BME280;55318;52.068;5.188;2023-03-13T01:34:23;99947.0;;;10.96;100.0
68376;BME280;55318;52.068;5.188;2023-03-13T01:36:00;99939.0;;;11.04;100.0
68376;BME280;55318;52.068;5.188;2023-03-13T01:39:13;99940.0;;;11.0;100.0
68376;BME280;55318;52.068;5.188;2023-03-13T01:40:49;99924.0;;;11.08;100.0
68376;BME280;55318;52.068;5.188;2023-03-13T01:42:25;99930.0;;;11.11;100.0
68376;BME280;55318;52.068;5.188;2023-03-13T01:44:02;99925.0;;;11.03;100.0
68376;BME280;55318;52.068;5.188;2023-03-13T01:47:53;99917.0;;;11.07;100.0
68376;BME280;55318;52.068;5.188;2023-03-13T01:49:30;99922.0;;;11.16;100.0
68376;BME280;55318;52.068;5.188;2023-03-13T01:51:12;99913.0;;;11.21;100.0
68376;BME280;55318;52.068;5.188;2023-03-13T01:52:51;99905.0;;;11.12;100.0
68376;BME280;55318;52.068;5.188;2023-03-13T01:54:32;99910.0;;;11.2;100.0
68376;BME280;55318;52.068;5.188;2023-03-13T01:57:55;99903.0;;;11.23;100.0
68376;BME280;55318;52.068;5.188;2023-03-13T01:59:34;99898.0;;;11.2;100.0
68376;BME280;55318;52.068;5.188;2023-03-13T02:01:19;99886.0;;;11.24;100.0
68376;BME280;55318;52.068;5.188;2023-03-13T02:02:58;99882.0;;;11.25;100.0
68376;BME280;55318;52.068;5.188;2023-03-13T02:06:21;99881.0;;;11.32;100.0
68376;BME280;55318;52.068;5.188;2023-03-13T02:08:00;99863.0;;;11.34;100.0
68376;BME280;55318;52.068;5.188;2023-03-13T02:09:42;99859.0;;;11.45;100.0
68376;BME280;55318;52.068;5.188;2023-03-13T02:11:28;99852.0;;;11.51;100.0
68376;BME280;55318;52.068;5.188;2023-03-13T02:14:44;99831.0;;;11.49;100.0
68376;BME280;55318;52.068;5.188;2023-03-13T02:16:22;99836.0;;;11.54;100.0
68376;BME280;55318;52.068;5.188;2023-03-13T02:17:59;99828.0;;;11.57;100.0
68376;BME280;55318;52.068;5.188;2023-03-13T02:19:38;99823.0;;;11.62;100.0
68376;BME280;55318;52.068;5.188;2023-03-13T02:23:16;99815.0;;;11.67;100.0
68376;BME280;55318;52.068;5.188;2023-03-13T02:25:02;99807.0;;;11.69;100.0
68376;BME280;55318;52.068;5.188;2023-03-13T02:26:44;99806.0;;;11.8;100.0
68376;BME280;55318;52.068;5.188;2023-03-13T02:28:22;99814.0;;;11.8;100.0
68376;BME280;55318;52.068;5.188;2023-03-13T02:31:38;99813.0;;;11.81;100.0
68376;BME280;55318;52.068;5.188;2023-03-13T02:33:15;99807.0;;;11.85;100.0
68376;BME280;55318;52.068;5.188;2023-03-13T02:34:55;99798.0;;;11.84;100.0
68376;BME280;55318;52.068;5.188;2023-03-13T02:36:32;99795.0;;;11.96;100.0
68376;BME280;55318;52.068;5.188;2023-03-13T02:39:51;99800.0;;;11.98;100.0
68376;BME280;55318;52.068;5.188;2023-03-13T02:41:28;99800.0;;;11.97;100.0
68376;BME280;55318;52.068;5.188;2023-03-13T02:43:11;99799.0;;;12.05;100.0
68376;BME280;55318;52.068;5.188;2023-03-13T02:44:50;99795.0;;;12.07;100.0
68376;BME280;55318;52.068;5.188;2023-03-13T02:48:02;99788.0;;;12.07;100.0
68376;BME280;55318;52.068;5.188;2023-03-13T02:49:38;99790.0;;;12.14;100.0
68376;BME280;55318;52.068;5.188;2023-03-13T02:51:17;99787.0;;;12.19;100.0
68376;BME280;55318;52.068;5.188;2023-03-13T02:54:40;99787.0;;;12.2;100.0
68376;BME280;55318;52.068;5.188;2023-03-13T02:56:21;99784.0;;;12.27;100.0
68376;BME280;55318;52.068;5.188;2023-03-13T02:57:59;99788.0;;;12.24;100.0
68376;BME280;55318;52.068;5.188;2023-03-13T02:59:35;99792.0;;;12.29;100.0
68376;BME280;55318;52.068;5.188;2023-03-13T03:02:47;99788.0;;;12.3;100.0
68376;BME280;55318;52.068;5.188;2023-03-13T03:04:24;99788.0;;;12.35;100.0
68376;BME280;55318;52.068;5.188;2023-03-13T03:06:02;99789.0;;;12.42;100.0
68376;BME280;55318;52.068;5.188;2023-03-13T03:09:17;99782.0;;;12.43;100.0
68376;BME280;55318;52.068;5.188;2023-03-13T03:10:53;99788.0;;;12.48;100.0
68376;BME280;55318;52.068;5.188;2023-03-13T03:12:29;99788.0;;;12.54;100.0
68376;BME280;55318;52.068;5.188;2023-03-13T03:14:07;99781.0;;;12.56;100.0
68376;BME280;55318;52.068;5.188;2023-03-13T03:17:19;99790.0;;;12.58;100.0
68376;BME280;55318;52.068;5.188;2023-03-13T03:18:55;99788.0;;;12.59;100.0
68376;BME280;55318;52.068;5.188;2023-03-13T03:20:31;99789.0;;;12.71;100.0
68376;BME280;55318;52.068;5.188;2023-03-13T03:23:45;99787.0;;;12.83;100.0
68376;BME280;55318;52.068;5.188;2023-03-13T03:25:21;99782.0;;;12.77;100.0
68376;BME280;55318;52.068;5.188;2023-03-13T03:26:57;99770.0;;;12.82;100.0
68376;BME280;55318;52.068;5.188;2023-03-13T03:30:10;99765.0;;;12.94;100.0
68376;BME280;55318;52.068;5.188;2023-03-13T03:31:46;99766.0;;;12.85;100.0
68376;BME280;55318;52.068;5.188;2023-03-13T03:33:23;99756.0;;;12.9;100.0
68376;BME280;55318;52.068;5.188;2023-03-13T03:34:59;99760.0;;;12.85;100.0
68376;BME280;55318;52.068;5.188;2023-03-13T03:38:12;99767.0;;;12.85;100.0
68376;BME280;55318;52.068;5.188;2023-03-13T03:39:48;99766.0;;;12.86;100.0
68376;BME280;55318;52.068;5.188;2023-03-13T03:41:24;99769.0;;;12.93;100.0
68376;BME280;55318;52.068;5.188;2023-03-13T03:44:36;99768.0;;;13.05;100.0
68376;BME280;55318;52.068;5.188;2023-03-13T03:46:13;99766.0;;;13.05;100.0
68376;BME280;55318;52.068;5.188;2023-03-13T03:47:50;99756.0;;;13.12;100.0
68376;BME280;55318;52.068;5.188;2023-03-13T03:51:02;99761.0;;;13.12;100.0
68376;BME280;55318;52.068;5.188;2023-03-13T03:52:39;99751.0;;;13.03;100.0
68376;BME280;55318;52.068;5.188;2023-03-13T03:54:15;99752.0;;;13.06;100.0
68376;BME280;55318;52.068;5.188;2023-03-13T03:55:51;99753.0;;;13.18;100.0
68376;BME280;55318;52.068;5.188;2023-03-13T03:59:03;99753.0;;;13.21;100.0
68376;BME280;55318;52.068;5.188;2023-03-13T04:00:42;99750.0;;;13.1;100.0
68376;BME280;55318;52.068;5.188;2023-03-13T04:02:19;99751.0;;;13.0;100.0
68376;BME280;55318;52.068;5.188;2023-03-13T04:05:31;99732.0;;;13.06;100.0
68376;BME280;55318;52.068;5.188;2023-03-13T04:07:07;99731.0;;;13.03;100.0
68376;BME280;55318;52.068;5.188;2023-03-13T04:08:43;99740.0;;;13.13;100.0
68376;BME280;55318;52.068;5.188;2023-03-13T04:11:55;99731.0;;;13.14;100.0
68376;BME280;55318;52.068;5.188;2023-03-13T04:13:31;99731.0;;;13.18;100.0
68376;BME280;55318;52.068;5.188;2023-03-13T04:15:08;99726.0;;;13.17;100.0
68376;BME280;55318;52.068;5.188;2023-03-13T04:16:45;99743.0;;;13.29;100.0
68376;BME280;55318;52.068;5.188;2023-03-13T04:19:57;99734.0;;;13.21;100.0
68376;BME280;55318;52.068;5.188;2023-03-13T04:21:33;99708.0;;;13.21;100.0
68376;BME280;55318;52.068;5.188;2023-03-13T04:23:09;99719.0;;;13.23;100.0
68376;BME280;55318;52.068;5.188;2023-03-13T04:26:22;99709.0;;;13.31;100.0
68376;BME280;55318;52.068;5.188;2023-03-13T04:27:58;99709.0;;;13.38;100.0
68376;BME280;55318;52.068;5.188;2023-03-13T04:29:34;99707.0;;;13.41;100.0
68376;BME280;55318;52.068;5.188;2023-03-13T04:32:47;99710.0;;;13.49;100.0
68376;BME280;55318;52.068;5.188;2023-03-13T04:34:23;99698.0;;;13.43;100.0
68376;BME280;55318;52.068;5.188;2023-03-13T04:35:59;99703.0;;;13.47;100.0
68376;BME280;55318;52.068;5.188;2023-03-13T04:39:11;99705.0;;;13.53;100.0
68376;BME280;55318;52.068;5.188;2023-03-13T04:40:47;99694.0;;;13.53;100.0
68376;BME280;55318;52.068;5.188;2023-03-13T04:42:24;99692.0;;;13.54;100.0
68376;BME280;55318;52.068;5.188;2023-03-13T04:44:00;99689.0;;;13.53;100.0
68376;BME280;55318;52.068;5.188;2023-03-13T04:47:12;99696.0;;;13.56;100.0
68376;BME280;55318;52.068;5.188;2023-03-13T04:48:48;99687.0;;;13.48;100.0
68376;BME280;55318;52.068;5.188;2023-03-13T04:50:24;99687.0;;;13.57;100.0
68376;BME280;55318;52.068;5.188;2023-03-13T04:53:37;99688.0;;;13.55;100.0
68376;BME280;55318;52.068;5.188;2023-03-13T04:55:13;99693.0;;;13.58;100.0
68376;BME280;55318;52.068;5.188;2023-03-13T04:56:49;99681.0;;;13.6;100.0
68376;BME280;55318;52.068;5.188;2023-03-13T05:00:01;99675.0;;;13.64;100.0
68376;BME280;55318;52.068;5.188;2023-03-13T05:01:37;99683.0;;;13.64;100.0
68376;BME280;55318;52.068;5.188;2023-03-13T05:03:15;99674.0;;;13.67;100.0
68376;BME280;55318;52.068;5.188;2023-03-13T05:04:51;99692.0;;;13.7;100.0
68376;BME280;55318;52.068;5.188;2023-03-13T05:08:04;99677.0;;;13.79;100.0
68376;BME280;55318;52.068;5.188;2023-03-13T05:09:40;99680.0;;;13.8;99.99
68376;BME280;55318;52.068;5.188;2023-03-13T05:11:16;99680.0;;;13.85;99.79
68376;BME280;55318;52.068;5.188;2023-03-13T05:14:28;99680.0;;;13.92;99.3
68376;BME280;55318;52.068;5.188;2023-03-13T05:16:06;99670.0;;;13.9;99.16
68376;BME280;55318;52.068;5.188;2023-03-13T05:17:42;99674.0;;;13.9;98.8
68376;BME280;55318;52.068;5.188;2023-03-13T05:20:55;99677.0;;;13.9;99.04
68376;BME280;55318;52.068;5.188;2023-03-13T05:22:31;99675.0;;;13.98;98.46
68376;BME280;55318;52.068;5.188;2023-03-13T05:24:07;99672.0;;;13.99;98.17
68376;BME280;55318;52.068;5.188;2023-03-13T05:27:19;99670.0;;;13.94;97.64
68376;BME280;55318;52.068;5.188;2023-03-13T05:28:55;99660.0;;;13.95;97.27
68376;BME280;55318;52.068;5.188;2023-03-13T05:30:31;99661.0;;;13.96;96.88
68376;BME280;55318;52.068;5.188;2023-03-13T05:32:08;99684.0;;;14.0;96.08
68376;BME280;55318;52.068;5.188;2023-03-13T05:35:20;99659.0;;;13.98;94.53
68376;BME280;55318;52.068;5.188;2023-03-13T05:36:56;99670.0;;;14.0;93.84
68376;BME280;55318;52.068;5.188;2023-03-13T05:38:32;99670.0;;;14.01;93.39
68376;BME280;55318;52.068;5.188;2023-03-13T05:41:47;99645.0;;;14.09;92.93
68376;BME280;55318;52.068;5.188;2023-03-13T05:43:23;99660.0;;;14.0;92.92
68376;BME280;55318;52.068;5.188;2023-03-13T05:44:59;99660.0;;;14.06;92.64
68376;BME280;55318;52.068;5.188;2023-03-13T05:48:12;99649.0;;;14.11;92.27
68376;BME280;55318;52.068;5.188;2023-03-13T05:51:24;99639.0;;;14.27;91.18
68376;BME280;55318;52.068;5.188;2023-03-13T05:53:00;99636.0;;;14.24;90.57
68376;BME280;55318;52.068;5.188;2023-03-13T05:56:12;99630.0;;;14.23;90.38
68376;BME280;55318;52.068;5.188;2023-03-13T05:57:48;99631.0;;;14.24;90.08
68376;BME280;55318;52.068;5.188;2023-03-13T05:59:24;99627.0;;;14.13;90.02
68376;BME280;55318;52.068;5.188;2023-03-13T06:02:42;99640.0;;;14.19;90.08
68376;BME280;55318;52.068;5.188;2023-03-13T06:04:19;99632.0;;;14.23;89.87
68376;BME280;55318;52.068;5.188;2023-03-13T06:05:56;99630.0;;;14.23;90.21
68376;BME280;55318;52.068;5.188;2023-03-13T06:09:09;99631.0;;;14.19;90.38
68376;BME280;55318;52.068;5.188;2023-03-13T06:10:45;99626.0;;;14.29;89.72
68376;BME280;55318;52.068;5.188;2023-03-13T06:12:21;99609.0;;;14.3;89.59
68376;BME280;55318;52.068;5.188;2023-03-13T06:13:57;99620.0;;;14.36;89.46
68376;BME280;55318;52.068;5.188;2023-03-13T06:17:10;99624.0;;;14.27;89.81
68376;BME280;55318;52.068;5.188;2023-03-13T06:18:46;99616.0;;;14.3;89.72
68376;BME280;55318;52.068;5.188;2023-03-13T06:20:22;99623.0;;;14.32;89.62
68376;BME280;55318;52.068;5.188;2023-03-13T06:23:35;99617.0;;;14.33;89.58
68376;BME280;55318;52.068;5.188;2023-03-13T06:25:11;99618.0;;;14.3;89.77
68376;BME280;55318;52.068;5.188;2023-03-13T06:26:47;99630.0;;;14.43;89.55
68376;BME280;55318;52.068;5.188;2023-03-13T06:30:01;99631.0;;;14.32;89.67
68376;BME280;55318;52.068;5.188;2023-03-13T06:31:37;99624.0;;;14.31;89.72
68376;BME280;55318;52.068;5.188;2023-03-13T06:33:13;99630.0;;;14.35;89.71
68376;BME280;55318;52.068;5.188;2023-03-13T06:34:49;99625.0;;;14.32;89.76
68376;BME280;55318;52.068;5.188;2023-03-13T06:38:01;99633.0;;;14.24;90.1
68376;BME280;55318;52.068;5.188;2023-03-13T06:39:37;99628.0;;;14.37;89.41
68376;BME280;55318;52.068;5.188;2023-03-13T06:41:14;99622.0;;;14.4;89.33
68376;BME280;55318;52.068;5.188;2023-03-13T06:44:26;99623.0;;;14.38;89.34
68376;BME280;55318;52.068;5.188;2023-03-13T06:46:03;99632.0;;;14.41;88.93
68376;BME280;55318;52.068;5.188;2023-03-13T06:47:39;99627.0;;;14.43;88.61
68376;BME280;55318;52.068;5.188;2023-03-13T06:50:51;99650.0;;;14.38;88.58
68376;BME280;55318;52.068;5.188;2023-03-13T06:52:27;99635.0;;;14.33;88.97
68376;BME280;55318;52.068;5.188;2023-03-13T06:54:03;99634.0;;;14.35;88.98
68376;BME280;55318;52.068;5.188;2023-03-13T06:57:16;99620.0;;;14.3;89.46
68376;BME280;55318;52.068;5.188;2023-03-13T06:58:52;99628.0;;;14.3;89.74
68376;BME280;55318;52.068;5.188;2023-03-13T07:00:28;99642.0;;;14.33;90.03
68376;BME280;55318;52.068;5.188;2023-03-13T07:02:04;99636.0;;;14.31;90.27
68376;BME280;55318;52.068;5.188;2023-03-13T07:05:18;99618.0;;;14.2;91.17
68376;BME280;55318;52.068;5.188;2023-03-13T07:06:54;99630.0;;;14.21;91.87
68376;BME280;55318;52.068;5.188;2023-03-13T07:08:31;99639.0;;;14.1;92.93
68376;BME280;55318;52.068;5.188;2023-03-13T07:11:46;99646.0;;;14.09;94.1
68376;BME280;55318;52.068;5.188;2023-03-13T07:13:22;99644.0;;;13.98;95.29
68376;BME280;55318;52.068;5.188;2023-03-13T07:14:58;99636.0;;;13.91;96.21
68376;BME280;55318;52.068;5.188;2023-03-13T07:18:10;99646.0;;;13.82;97.68
68376;BME280;55318;52.068;5.188;2023-03-13T07:19:46;99640.0;;;13.8;97.91
68376;BME280;55318;52.068;5.188;2023-03-13T07:21:22;99639.0;;;13.77;98.16
68376;BME280;55318;52.068;5.188;2023-03-13T07:22:58;99649.0;;;13.75;98.59
68376;BME280;55318;52.068;5.188;2023-03-13T07:26:11;99639.0;;;13.59;99.42
68376;BME280;55318;52.068;5.188;2023-03-13T07:27:50;99637.0;;;13.64;99.4
68376;BME280;55318;52.068;5.188;2023-03-13T07:29:26;99645.0;;;13.71;99.43
68376;BME280;55318;52.068;5.188;2023-03-13T07:32:41;99641.0;;;13.63;99.86
68376;BME280;55318;52.068;5.188;2023-03-13T07:34:17;99645.0;;;13.68;99.93
68376;BME280;55318;52.068;5.188;2023-03-13T07:35:53;99639.0;;;13.57;100.0
68376;BME280;55318;52.068;5.188;2023-03-13T07:39:05;99638.0;;;13.56;100.0
68376;BME280;55318;52.068;5.188;2023-03-13T07:40:47;99650.0;;;13.59;100.0
68376;BME280;55318;52.068;5.188;2023-03-13T07:42:23;99644.0;;;13.52;100.0
68376;BME280;55318;52.068;5.188;2023-03-13T07:44:00;99634.0;;;13.42;100.0
68376;BME280;55318;52.068;5.188;2023-03-13T07:47:12;99651.0;;;13.45;100.0
68376;BME280;55318;52.068;5.188;2023-03-13T07:48:48;99667.0;;;13.46;100.0
68376;BME280;55318;52.068;5.188;2023-03-13T07:50:24;99667.0;;;13.42;100.0
68376;BME280;55318;52.068;5.188;2023-03-13T07:53:36;99662.0;;;13.47;100.0
68376;BME280;55318;52.068;5.188;2023-03-13T07:55:12;99662.0;;;13.5;100.0
68376;BME280;55318;52.068;5.188;2023-03-13T07:56:48;99664.0;;;13.51;100.0
68376;BME280;55318;52.068;5.188;2023-03-13T08:00:04;99644.0;;;13.41;100.0
68376;BME280;55318;52.068;5.188;2023-03-13T08:01:40;99656.0;;;13.5;100.0
68376;BME280;55318;52.068;5.188;2023-03-13T08:03:16;99655.0;;;13.5;100.0
68376;BME280;55318;52.068;5.188;2023-03-13T08:04:53;99653.0;;;13.62;100.0
68376;BME280;55318;52.068;5.188;2023-03-13T08:08:08;99660.0;;;13.6;100.0
68376;BME280;55318;52.068;5.188;2023-03-13T08:09:44;99650.0;;;13.52;100.0
68376;BME280;55318;52.068;5.188;2023-03-13T08:11:22;99645.0;;;13.61;100.0
68376;BME280;55318;52.068;5.188;2023-03-13T08:14:35;99633.0;;;13.51;100.0
68376;BME280;55318;52.068;5.188;2023-03-13T08:16:12;99644.0;;;13.44;100.0
68376;BME280;55318;52.068;5.188;2023-03-13T08:17:50;99651.0;;;13.44;100.0
68376;BME280;55318;52.068;5.188;2023-03-13T08:19:26;99646.0;;;13.47;100.0
68376;BME280;55318;52.068;5.188;2023-03-13T08:22:41;99647.0;;;13.44;100.0
68376;BME280;55318;52.068;5.188;2023-03-13T08:24:18;99637.0;;;13.4;100.0
68376;BME280;55318;52.068;5.188;2023-03-13T08:25:54;99627.0;;;13.42;100.0
68376;BME280;55318;52.068;5.188;2023-03-13T08:29:08;99616.0;;;13.47;100.0
68376;BME280;55318;52.068;5.188;2023-03-13T08:30:45;99623.0;;;13.45;100.0
68376;BME280;55318;52.068;5.188;2023-03-13T08:32:21;99633.0;;;13.61;100.0
68376;BME280;55318;52.068;5.188;2023-03-13T08:35:34;99627.0;;;13.58;100.0
68376;BME280;55318;52.068;5.188;2023-03-13T08:37:14;99611.0;;;13.53;100.0
68376;BME280;55318;52.068;5.188;2023-03-13T08:38:51;99607.0;;;13.54;100.0
68376;BME280;55318;52.068;5.188;2023-03-13T08:40:28;99595.0;;;13.53;100.0
68376;BME280;55318;52.068;5.188;2023-03-13T08:43:43;99601.0;;;13.58;100.0
68376;BME280;55318;52.068;5.188;2023-03-13T08:45:20;99580.0;;;13.7;100.0
68376;BME280;55318;52.068;5.188;2023-03-13T08:46:57;99595.0;;;13.64;100.0
68376;BME280;55318;52.068;5.188;2023-03-13T08:50:10;99583.0;;;13.68;100.0
68376;BME280;55318;52.068;5.188;2023-03-13T08:51:46;99582.0;;;13.77;100.0
68376;BME280;55318;52.068;5.188;2023-03-13T08:53:22;99575.0;;;13.76;100.0
68376;BME280;55318;52.068;5.188;2023-03-13T08:54:58;99564.0;;;13.78;100.0
68376;BME280;55318;52.068;5.188;2023-03-13T08:58:11;99584.0;;;13.85;99.59
68376;BME280;55318;52.068;5.188;2023-03-13T08:59:48;99575.0;;;13.95;99.3
68376;BME280;55318;52.068;5.188;2023-03-13T09:01:26;99593.0;;;14.03;98.12
68376;BME280;55318;52.068;5.188;2023-03-13T09:04:39;99582.0;;;13.93;97.92
68376;BME280;55318;52.068;5.188;2023-03-13T09:06:15;99600.0;;;13.98;97.22
68376;BME280;55318;52.068;5.188;2023-03-13T09:07:52;99588.0;;;13.97;96.75
68376;BME280;55318;52.068;5.188;2023-03-13T09:11:06;99577.0;;;14.16;96.16
68376;BME280;55318;52.068;5.188;2023-03-13T09:12:44;99574.0;;;14.41;95.6
68376;BME280;55318;52.068;5.188;2023-03-13T09:14:20;99568.0;;;14.69;95.1
68376;BME280;55318;52.068;5.188;2023-03-13T09:15:57;99565.0;;;14.69;92.67
68376;BME280;55318;52.068;5.188;2023-03-13T09:19:10;99556.0;;;14.91;91.39
68376;BME280;55318;52.068;5.188;2023-03-13T09:20:46;99555.0;;;15.08;90.35
68376;BME280;55318;52.068;5.188;2023-03-13T09:22:22;99555.0;;;15.33;89.52
68376;BME280;55318;52.068;5.188;2023-03-13T09:25:37;99543.0;;;15.57;88.45
68376;BME280;55318;52.068;5.188;2023-03-13T09:27:13;99541.0;;;15.63;87.35
68376;BME280;55318;52.068;5.188;2023-03-13T09:28:50;99544.0;;;15.89;86.12
68376;BME280;55318;52.068;5.188;2023-03-13T09:32:03;99540.0;;;15.87;83.97
68376;BME280;55318;52.068;5.188;2023-03-13T09:33:39;99532.0;;;16.0;84.26
68376;BME280;55318;52.068;5.188;2023-03-13T09:35:16;99548.0;;;15.98;83.04
68376;BME280;55318;52.068;5.188;2023-03-13T09:36:52;99530.0;;;15.97;82.12
68376;BME280;55318;52.068;5.188;2023-03-13T09:40:05;99520.0;;;16.15;82.43
68376;BME280;55318;52.068;5.188;2023-03-13T09:43:38;99531.0;;;16.09;80.66
68376;BME280;55318;52.068;5.188;2023-03-13T09:45:17;99525.0;;;16.11;81.17
68376;BME280;55318;52.068;5.188;2023-03-13T09:48:54;99515.0;;;16.21;81.27
68376;BME280;55318;52.068;5.188;2023-03-13T09:50:34;99507.0;;;16.22;80.36
68376;BME280;55318;52.068;5.188;2023-03-13T09:52:15;99506.0;;;16.31;80.31
68376;BME280;55318;52.068;5.188;2023-03-13T09:53:55;99521.0;;;16.36;80.19
68376;BME280;55318;52.068;5.188;2023-03-13T09:57:18;99508.0;;;16.3;79.02
68376;BME280;55318;52.068;5.188;2023-03-13T09:59:02;99509.0;;;16.45;79.31
68376;BME280;55318;52.068;5.188;2023-03-13T10:00:47;99498.0;;;16.45;79.27
68376;BME280;55318;52.068;5.188;2023-03-13T10:02:30;99497.0;;;16.5;78.38
68376;BME280;55318;52.068;5.188;2023-03-13T10:04:13;99477.0;;;16.61;77.16
68376;BME280;55318;52.068;5.188;2023-03-13T10:07:41;99485.0;;;16.61;77.02
68376;BME280;55318;52.068;5.188;2023-03-13T10:09:20;99470.0;;;16.54;76.69
68376;BME280;55318;52.068;5.188;2023-03-13T10:11:10;99498.0;;;16.52;76.09
68376;BME280;55318;52.068;5.188;2023-03-13T10:12:48;99463.0;;;16.46;75.8
68376;BME280;55318;52.068;5.188;2023-03-13T10:16:09;99465.0;;;16.63;76.05
68376;BME280;55318;52.068;5.188;2023-03-13T10:17:47;99471.0;;;16.79;77.03
68376;BME280;55318;52.068;5.188;2023-03-13T10:19:26;99455.0;;;16.72;75.33
68376;BME280;55318;52.068;5.188;2023-03-13T10:21:14;99463.0;;;16.61;75.86
68376;BME280;55318;52.068;5.188;2023-03-13T10:22:58;99480.0;;;16.64;75.05
68376;BME280;55318;52.068;5.188;2023-03-13T10:26:22;99462.0;;;16.65;73.87
68376;BME280;55318;52.068;5.188;2023-03-13T10:28:01;99474.0;;;16.61;74.37
68376;BME280;55318;52.068;5.188;2023-03-13T10:29:39;99464.0;;;16.61;74.7
68376;BME280;55318;52.068;5.188;2023-03-13T10:31:23;99494.0;;;16.5;73.84
68376;BME280;55318;52.068;5.188;2023-03-13T10:34:56;99476.0;;;16.48;74.13
68376;BME280;55318;52.068;5.188;2023-03-13T10:36:39;99485.0;;;16.56;74.19
68376;BME280;55318;52.068;5.188;2023-03-13T10:38:19;99485.0;;;16.64;74.3
68376;BME280;55318;52.068;5.188;2023-03-13T10:40:11;99478.0;;;16.5;71.38
68376;BME280;55318;52.068;5.188;2023-03-13T10:41:52;99462.0;;;16.43;71.91
68376;BME280;55318;52.068;5.188;2023-03-13T10:45:14;99467.0;;;16.43;71.63
68376;BME280;55318;52.068;5.188;2023-03-13T10:46:51;99478.0;;;16.41;72.05
68376;BME280;55318;52.068;5.188;2023-03-13T10:48:29;99471.0;;;16.36;71.92
68376;BME280;55318;52.068;5.188;2023-03-13T10:50:17;99473.0;;;16.23;71.74
68376;BME280;55318;52.068;5.188;2023-03-13T10:53:36;99452.0;;;16.2;72.97
68376;BME280;55318;52.068;5.188;2023-03-13T10:55:16;99460.0;;;16.27;72.91
68376;BME280;55318;52.068;5.188;2023-03-13T10:57:08;99459.0;;;16.43;72.73
68376;BME280;55318;52.068;5.188;2023-03-13T10:58:46;99467.0;;;16.47;72.13
68376;BME280;55318;52.068;5.188;2023-03-13T11:02:20;99452.0;;;16.56;71.74
68376;BME280;55318;52.068;5.188;2023-03-13T11:03:58;99471.0;;;16.57;71.47
68376;BME280;55318;52.068;5.188;2023-03-13T11:05:55;99467.0;;;16.48;70.56
68376;BME280;55318;52.068;5.188;2023-03-13T11:07:34;99455.0;;;16.47;70.47
68376;BME280;55318;52.068;5.188;2023-03-13T11:09:12;99449.0;;;16.65;70.16
68376;BME280;55318;52.068;5.188;2023-03-13T11:12:33;99439.0;;;16.75;69.69
68376;BME280;55318;52.068;5.188;2023-03-13T11:14:13;99433.0;;;16.93;70.19
68376;BME280;55318;52.068;5.188;2023-03-13T11:15:53;99441.0;;;17.02;69.47
68376;BME280;55318;52.068;5.188;2023-03-13T11:17:36;99455.0;;;17.23;68.36